Time;durP1;ratioP1;P1;durP2;ratioP2;P2;SDS_P1;SDS_P2;PMS_P1;PMS_P2;Temp;Humidity;BMP_temperature;BMP_pressure;BME280_temperature;BME280_humidity;BME280_pressure;Samples;Min_cycle;Max_cycle;Signal;HPM_P1;HPM_P2
2022/07/10 00:00:08;;;;;;;3.63;1.27;;;19.30;56.90;;;;;;5006968;28;20487;-68
2022/07/10 00:02:35;;;;;;;3.27;1.20;;;19.20;57.00;;;;;;5007839;28;20433;-68
2022/07/10 00:05:02;;;;;;;2.70;1.30;;;19.30;57.20;;;;;;5007019;28;20567;-68
2022/07/10 00:07:29;;;;;;;3.83;1.70;;;19.20;57.10;;;;;;5007830;28;20829;-68
2022/07/10 00:09:56;;;;;;;6.17;1.17;;;19.20;57.20;;;;;;5007778;28;20452;-68
2022/07/10 00:12:23;;;;;;;6.93;1.57;;;19.20;57.30;;;;;;5006979;28;20818;-68
2022/07/10 00:14:51;;;;;;;5.27;1.60;;;19.20;57.50;;;;;;5006477;28;20476;-68
2022/07/10 00:17:17;;;;;;;4.20;1.27;;;19.20;57.70;;;;;;5006509;28;20443;-68
2022/07/10 00:19:44;;;;;;;3.80;1.70;;;19.10;57.90;;;;;;5006897;28;20456;-68
2022/07/10 00:22:11;;;;;;;4.53;1.13;;;19.10;58.20;;;;;;5007388;28;20437;-68
2022/07/10 00:24:38;;;;;;;3.50;1.67;;;19.00;58.30;;;;;;5007737;28;20480;-68
2022/07/10 00:27:07;;;;;;;4.40;1.37;;;19.00;58.80;;;;;;5009454;28;20479;-68
2022/07/10 00:29:34;;;;;;;3.57;1.60;;;18.90;59.00;;;;;;5008674;28;20516;-68
2022/07/10 00:32:02;;;;;;;2.83;1.40;;;18.90;59.90;;;;;;5009182;28;20831;-68
2022/07/10 00:34:29;;;;;;;3.33;1.47;;;18.90;59.40;;;;;;5007939;28;20477;-68
2022/07/10 00:36:56;;;;;;;2.40;1.30;;;18.90;59.40;;;;;;5008422;28;20457;-67
2022/07/10 00:39:23;;;;;;;4.13;1.50;;;18.90;59.60;;;;;;5008119;28;20439;-67
2022/07/10 00:41:49;;;;;;;4.83;1.40;;;18.90;59.90;;;;;;5008085;28;20476;-68
2022/07/10 00:44:16;;;;;;;3.30;1.63;;;18.80;59.90;;;;;;5008883;28;20495;-68
2022/07/10 00:46:43;;;;;;;5.60;1.20;;;18.80;60.10;;;;;;5007075;28;20511;-67
2022/07/10 00:49:11;;;;;;;2.50;1.20;;;18.70;60.40;;;;;;5008070;28;20445;-68
2022/07/10 00:51:39;;;;;;;4.10;1.67;;;18.60;60.80;;;;;;4991014;28;20467;-67
2022/07/10 00:54:07;;;;;;;4.73;1.90;;;18.60;61.00;;;;;;5008492;28;20479;-67
2022/07/10 00:56:34;;;;;;;2.87;1.40;;;18.60;61.40;;;;;;5007842;28;20479;-68
2022/07/10 00:59:01;;;;;;;5.90;1.20;;;18.60;61.50;;;;;;5005383;28;20438;-68
2022/07/10 01:01:28;;;;;;;5.83;1.77;;;18.60;61.90;;;;;;5004583;28;20661;-68
2022/07/10 01:03:55;;;;;;;3.23;1.33;;;18.60;62.20;;;;;;5005817;28;20471;-68
2022/07/10 01:06:23;;;;;;;2.40;0.93;;;18.50;62.60;;;;;;5006472;28;20449;-68
2022/07/10 01:08:50;;;;;;;3.33;1.27;;;18.50;63.60;;;;;;5006276;28;20571;-68
2022/07/10 01:11:16;;;;;;;6.63;1.73;;;18.50;63.00;;;;;;5012613;28;20532;-68
2022/07/10 01:13:44;;;;;;;7.90;1.87;;;18.60;63.00;;;;;;5011688;28;20468;-68
2022/07/10 01:16:12;;;;;;;6.07;1.40;;;18.60;63.20;;;;;;5012056;28;20462;-68
2022/07/10 01:18:38;;;;;;;2.33;1.30;;;18.70;63.50;;;;;;5009732;28;20455;-68
2022/07/10 01:21:07;;;;;;;5.00;1.73;;;18.70;63.50;;;;;;5009923;28;20452;-68
2022/07/10 01:23:33;;;;;;;3.07;1.20;;;18.70;63.50;;;;;;5010828;28;20841;-67
2022/07/10 01:26:02;;;;;;;5.70;1.60;;;18.70;63.80;;;;;;5012888;28;20455;-67
2022/07/10 01:28:31;;;;;;;4.70;1.57;;;18.70;63.90;;;;;;5011617;28;20479;-68
2022/07/10 01:30:58;;;;;;;3.33;1.40;;;18.60;64.20;;;;;;5011812;28;20801;-68
2022/07/10 01:33:24;;;;;;;2.27;1.00;;;18.60;64.80;;;;;;5011161;28;20209;-68
2022/07/10 01:35:51;;;;;;;2.20;1.30;;;18.50;65.00;;;;;;5011483;28;20444;-68
2022/07/10 01:38:20;;;;;;;4.50;1.30;;;18.40;65.50;;;;;;5011176;28;20971;-68
2022/07/10 01:40:46;;;;;;;4.53;1.30;;;18.40;66.30;;;;;;5011240;28;20442;-68
2022/07/10 01:43:13;;;;;;;4.23;1.23;;;18.40;66.60;;;;;;5010885;28;20452;-68
2022/07/10 01:45:40;;;;;;;4.30;1.27;;;18.30;66.80;;;;;;5010581;28;20467;-68
2022/07/10 01:48:07;;;;;;;3.70;1.87;;;18.30;67.00;;;;;;5011205;28;21037;-68
2022/07/10 01:50:34;;;;;;;4.80;1.70;;;18.30;67.50;;;;;;5011596;28;20456;-68
2022/07/10 01:53:00;;;;;;;3.13;1.60;;;18.30;67.80;;;;;;5011636;28;20403;-68
2022/07/10 01:55:29;;;;;;;4.00;1.70;;;18.30;68.10;;;;;;5011082;28;20470;-68
2022/07/10 01:57:55;;;;;;;4.43;1.53;;;18.30;68.30;;;;;;5011595;28;20539;-68
2022/07/10 02:00:23;;;;;;;9.93;1.70;;;18.30;68.30;;;;;;5011296;28;20543;-68
2022/07/10 02:05:31;;;;;;;4.17;1.63;;;18.10;69.20;;;;;;5011159;28;20822;-68
2022/07/10 02:07:58;;;;;;;9.57;2.27;;;18.00;70.10;;;;;;5010657;28;20490;-68
2022/07/10 02:10:25;;;;;;;3.70;1.30;;;18.00;70.40;;;;;;5011808;28;20448;-68
2022/07/10 02:12:53;;;;;;;4.53;1.67;;;18.00;70.50;;;;;;5011775;28;20544;-68
2022/07/10 02:15:20;;;;;;;8.53;2.03;;;18.00;70.60;;;;;;5011060;28;20456;-68
2022/07/10 02:17:47;;;;;;;4.03;1.63;;;18.00;70.50;;;;;;5011536;28;20440;-68
2022/07/10 02:20:14;;;;;;;4.07;1.40;;;18.00;70.50;;;;;;5010147;28;20456;-68
2022/07/10 02:22:41;;;;;;;4.83;1.90;;;18.00;70.50;;;;;;5007501;28;20475;-68
2022/07/10 02:25:09;;;;;;;5.50;1.70;;;18.00;70.30;;;;;;5008187;28;20467;-68
2022/07/10 02:27:35;;;;;;;4.50;1.80;;;18.00;70.20;;;;;;5009141;28;20834;-68
2022/07/10 02:30:04;;;;;;;3.37;1.70;;;18.00;70.10;;;;;;5007467;28;20943;-68
2022/07/10 02:32:31;;;;;;;2.87;1.50;;;17.90;69.80;;;;;;5007448;28;20441;-68
2022/07/10 02:34:58;;;;;;;4.00;1.80;;;17.90;69.60;;;;;;5007016;28;20468;-68
2022/07/10 02:37:25;;;;;;;3.20;1.70;;;18.00;69.80;;;;;;4990607;28;20453;-68
2022/07/10 02:39:52;;;;;;;3.17;1.57;;;17.90;69.70;;;;;;5007976;28;20496;-68
2022/07/10 02:42:18;;;;;;;5.33;1.97;;;17.90;69.60;;;;;;5007542;28;20444;-68
2022/07/10 02:44:45;;;;;;;4.60;2.07;;;17.90;69.40;;;;;;5006742;28;20480;-68
2022/07/10 02:47:13;;;;;;;4.10;1.60;;;17.80;69.40;;;;;;5006447;28;20484;-68
2022/07/10 02:49:40;;;;;;;3.67;1.57;;;17.80;69.70;;;;;;5006596;28;20456;-68
2022/07/10 02:52:07;;;;;;;7.00;2.10;;;17.80;69.80;;;;;;5005744;28;20460;-67
2022/07/10 02:54:34;;;;;;;3.17;2.33;;;17.80;69.80;;;;;;5005811;28;20476;-67
2022/07/10 02:57:01;;;;;;;2.10;1.43;;;17.80;69.80;;;;;;5005592;28;20456;-67
2022/07/10 02:59:28;;;;;;;3.80;1.80;;;17.80;69.50;;;;;;5005712;28;20446;-67
2022/07/10 03:01:54;;;;;;;3.97;2.00;;;17.80;69.60;;;;;;5005643;28;20452;-68
2022/07/10 03:04:23;;;;;;;8.73;2.37;;;17.80;69.80;;;;;;5005618;28;20478;-68
2022/07/10 03:06:50;;;;;;;4.77;2.47;;;17.70;69.80;;;;;;5005437;28;20467;-68
2022/07/10 03:09:17;;;;;;;6.73;2.80;;;17.60;70.40;;;;;;5004032;28;20492;-68
2022/07/10 03:11:44;;;;;;;9.70;2.13;;;17.50;71.40;;;;;;5005360;28;20456;-68
2022/07/10 03:14:10;;;;;;;6.60;2.00;;;17.40;72.20;;;;;;5004404;28;20472;-68
2022/07/10 03:16:37;;;;;;;6.63;1.93;;;17.30;72.70;;;;;;5004479;28;20474;-68
2022/07/10 03:19:04;;;;;;;4.80;2.43;;;17.30;73.60;;;;;;5004676;28;20539;-68
2022/07/10 03:21:33;;;;;;;5.40;2.27;;;17.20;73.80;;;;;;5010893;28;20460;-68
2022/07/10 03:24:00;;;;;;;8.07;2.40;;;17.20;74.10;;;;;;5005161;28;20465;-68
2022/07/10 03:26:29;;;;;;;7.10;2.07;;;17.30;74.00;;;;;;5005960;28;20443;-68
2022/07/10 03:28:56;;;;;;;4.67;2.20;;;17.20;74.10;;;;;;5004531;28;20850;-68
2022/07/10 03:31:23;;;;;;;7.43;2.23;;;17.20;74.60;;;;;;5005690;28;20448;-68
2022/07/10 03:33:49;;;;;;;3.93;2.47;;;17.10;74.70;;;;;;5004945;28;20479;-67
2022/07/10 03:36:16;;;;;;;4.70;2.10;;;17.10;74.90;;;;;;5006984;28;20820;-67
2022/07/10 03:38:46;;;;;;;5.83;2.47;;;17.10;75.10;;;;;;5006194;28;20448;-67
2022/07/10 03:41:13;;;;;;;3.93;2.17;;;17.10;75.20;;;;;;5004868;28;20457;-67
2022/07/10 03:43:39;;;;;;;6.60;2.27;;;17.00;75.70;;;;;;5004811;28;20480;-68
2022/07/10 03:46:06;;;;;;;7.63;2.27;;;17.00;76.10;;;;;;5005181;28;20508;-68
2022/07/10 03:48:33;;;;;;;3.40;2.13;;;17.00;76.10;;;;;;5004750;28;20484;-67
2022/07/10 03:51:00;;;;;;;2.40;1.80;;;17.00;76.10;;;;;;5004096;28;20452;-68
2022/07/10 03:53:27;;;;;;;3.90;1.90;;;17.00;76.30;;;;;;5005532;28;20452;-68
2022/07/10 03:55:55;;;;;;;4.30;2.37;;;16.90;76.00;;;;;;5005935;28;20437;-68
2022/07/10 03:58:21;;;;;;;5.10;2.23;;;16.90;76.10;;;;;;5005492;28;20455;-68
2022/07/10 04:00:48;;;;;;;6.10;1.70;;;16.90;77.00;;;;;;5006598;28;20445;-68
2022/07/10 04:03:15;;;;;;;4.07;2.20;;;16.90;76.40;;;;;;5005574;28;20444;-68
2022/07/10 04:05:42;;;;;;;8.13;2.70;;;16.90;76.50;;;;;;5005334;28;20456;-68
2022/07/10 04:08:09;;;;;;;6.53;2.20;;;16.90;76.40;;;;;;5004810;28;20491;-68
2022/07/10 04:10:36;;;;;;;3.37;2.00;;;16.80;76.30;;;;;;5004112;28;20495;-68
2022/07/10 04:13:04;;;;;;;4.20;2.40;;;16.90;76.40;;;;;;5003227;28;20944;-68
2022/07/10 04:15:31;;;;;;;2.87;2.37;;;16.90;76.60;;;;;;5003518;28;20839;-68
2022/07/10 04:17:58;;;;;;;3.60;2.30;;;16.90;76.60;;;;;;5003790;28;20444;-68
2022/07/10 04:20:25;;;;;;;3.50;2.30;;;16.80;76.90;;;;;;5002266;28;20456;-68
2022/07/10 04:22:52;;;;;;;9.20;2.60;;;16.70;77.30;;;;;;5002497;28;20519;-68
2022/07/10 04:25:19;;;;;;;5.27;2.60;;;16.70;78.10;;;;;;5003726;28;20470;-68
2022/07/10 04:27:46;;;;;;;3.60;2.70;;;16.70;78.80;;;;;;5003285;28;20455;-68
2022/07/10 04:30:14;;;;;;;9.20;2.80;;;16.60;79.40;;;;;;5002457;28;20912;-68
2022/07/10 04:32:41;;;;;;;5.00;2.70;;;16.60;80.00;;;;;;5002941;28;20448;-68
2022/07/10 04:35:09;;;;;;;4.23;2.80;;;16.60;80.30;;;;;;5002873;28;20567;-68
2022/07/10 04:37:36;;;;;;;4.17;2.97;;;16.60;81.00;;;;;;5003069;28;20452;-68
2022/07/10 04:40:04;;;;;;;4.80;2.40;;;16.60;81.70;;;;;;5002803;28;20450;-68
2022/07/10 04:42:31;;;;;;;6.93;2.73;;;16.60;81.80;;;;;;5002301;28;20960;-68
2022/07/10 04:44:58;;;;;;;3.90;2.63;;;16.60;81.90;;;;;;5002227;28;20476;-68
2022/07/10 04:47:26;;;;;;;4.80;2.60;;;16.70;82.00;;;;;;5003802;28;20456;-68
2022/07/10 04:49:53;;;;;;;6.17;2.80;;;16.80;82.20;;;;;;5003611;28;20491;-68
2022/07/10 04:52:20;;;;;;;4.30;2.10;;;16.70;82.30;;;;;;5003826;28;20456;-68
2022/07/10 04:54:47;;;;;;;5.07;2.67;;;16.80;82.00;;;;;;5003517;28;20558;-68
2022/07/10 04:57:13;;;;;;;11.27;3.27;;;16.80;82.40;;;;;;5004140;28;20448;-68
2022/07/10 04:59:40;;;;;;;4.33;2.60;;;16.80;82.50;;;;;;5003625;28;20455;-68
2022/07/10 05:02:08;;;;;;;6.80;2.37;;;16.90;82.20;;;;;;5004045;28;20534;-68
2022/07/10 05:04:36;;;;;;;4.17;2.90;;;16.90;82.70;;;;;;5003652;28;20540;-68
2022/07/10 05:07:03;;;;;;;6.07;2.60;;;16.90;82.70;;;;;;5003785;28;20974;-68
2022/07/10 05:09:29;;;;;;;5.90;2.50;;;16.90;82.40;;;;;;5003843;28;20480;-68
2022/07/10 05:11:56;;;;;;;4.43;2.30;;;17.00;82.30;;;;;;5004207;28;20456;-68
2022/07/10 05:14:25;;;;;;;4.73;2.40;;;17.00;82.30;;;;;;5003370;28;20471;-68
2022/07/10 05:16:52;;;;;;;7.27;2.40;;;17.00;82.60;;;;;;5004084;28;20468;-68
2022/07/10 05:19:19;;;;;;;5.97;2.50;;;17.10;82.90;;;;;;5004120;28;20440;-68
2022/07/10 05:21:47;;;;;;;4.63;2.67;;;17.10;82.30;;;;;;5004157;28;20453;-68
2022/07/10 05:24:14;;;;;;;6.33;2.97;;;17.20;82.30;;;;;;5003800;28;20559;-68
2022/07/10 05:26:41;;;;;;;7.30;2.90;;;17.30;82.20;;;;;;5003107;28;20456;-68
2022/07/10 05:29:07;;;;;;;3.90;1.97;;;17.30;81.70;;;;;;5002531;28;20495;-68
2022/07/10 05:31:34;;;;;;;6.70;2.40;;;17.40;81.80;;;;;;5003276;28;20543;-68
2022/07/10 05:34:01;;;;;;;3.93;1.87;;;17.50;81.40;;;;;;5003904;28;20468;-68
2022/07/10 05:36:28;;;;;;;8.07;2.90;;;17.60;81.00;;;;;;5003344;28;20441;-68
2022/07/10 05:38:56;;;;;;;5.30;2.57;;;17.70;80.30;;;;;;5003154;28;20452;-68
2022/07/10 05:41:23;;;;;;;5.30;2.73;;;17.70;80.40;;;;;;5002977;28;20478;-68
2022/07/10 05:43:50;;;;;;;6.43;2.20;;;17.70;80.20;;;;;;5003392;28;20480;-68
2022/07/10 05:46:17;;;;;;;5.67;2.53;;;17.70;80.10;;;;;;5003685;28;20539;-68
2022/07/10 05:48:44;;;;;;;4.33;2.17;;;17.80;80.50;;;;;;5004490;28;20480;-68
2022/07/10 05:51:11;;;;;;;6.70;2.37;;;17.70;80.80;;;;;;5003621;28;20452;-68
2022/07/10 05:53:38;;;;;;;3.20;1.90;;;17.80;80.50;;;;;;5004110;28;20496;-68
2022/07/10 05:56:07;;;;;;;4.17;2.10;;;17.80;80.00;;;;;;5002136;28;20981;-68
2022/07/10 05:58:34;;;;;;;5.07;2.00;;;17.90;80.30;;;;;;5012049;28;20471;-68
2022/07/10 06:01:01;;;;;;;5.00;2.20;;;18.00;80.40;;;;;;5012494;28;20977;-68
2022/07/10 06:03:28;;;;;;;9.53;2.97;;;18.10;79.80;;;;;;5012938;28;20479;-68
2022/07/10 06:05:55;;;;;;;2.53;2.00;;;18.20;79.00;;;;;;5012490;28;20441;-68
2022/07/10 06:08:22;;;;;;;6.27;2.37;;;18.30;77.90;;;;;;5011508;28;20451;-68
2022/07/10 06:10:48;;;;;;;6.53;1.93;;;18.50;77.20;;;;;;5006098;28;20448;-68
2022/07/10 06:13:16;;;;;;;3.87;2.23;;;18.60;76.90;;;;;;5006006;28;20452;-68
2022/07/10 06:15:43;;;;;;;3.40;1.87;;;18.80;76.50;;;;;;5005747;28;20456;-68
2022/07/10 06:18:10;;;;;;;4.50;2.20;;;18.90;75.80;;;;;;5005950;28;20828;-68
2022/07/10 06:20:37;;;;;;;3.70;2.00;;;19.00;75.80;;;;;;5006284;28;20444;-68
2022/07/10 06:23:03;;;;;;;8.07;2.60;;;19.20;75.20;;;;;;5006509;28;20454;-68
2022/07/10 06:25:30;;;;;;;7.50;2.50;;;19.20;74.80;;;;;;5006036;28;20471;-68
2022/07/10 06:27:57;;;;;;;5.63;1.87;;;19.30;73.80;;;;;;5006987;28;20451;-68
2022/07/10 06:30:25;;;;;;;5.03;2.10;;;19.30;73.50;;;;;;5006824;28;20489;-68
2022/07/10 06:32:52;;;;;;;4.90;2.00;;;19.40;73.00;;;;;;5006574;28;20449;-68
2022/07/10 06:35:19;;;;;;;6.57;2.47;;;19.40;72.90;;;;;;5006875;28;20472;-68
2022/07/10 06:37:46;;;;;;;4.50;1.70;;;19.30;72.80;;;;;;5008383;28;20454;-68
2022/07/10 06:40:14;;;;;;;7.53;2.00;;;19.30;72.90;;;;;;5009117;28;20433;-68
2022/07/10 06:42:41;;;;;;;7.17;2.57;;;19.30;73.50;;;;;;5006452;28;20460;-68
2022/07/10 06:45:08;;;;;;;4.00;2.10;;;19.30;73.70;;;;;;4989326;28;20491;-68
2022/07/10 06:50:22;;;;;;;5.17;2.50;;;19.20;73.40;;;;;;5009921;28;20470;-68
2022/07/10 06:52:49;;;;;;;7.97;2.50;;;19.10;73.30;;;;;;5012826;28;20471;-68
2022/07/10 06:55:16;;;;;;;3.40;2.47;;;19.10;73.20;;;;;;5015739;28;20520;-68
2022/07/10 06:57:43;;;;;;;6.33;1.97;;;19.10;73.90;;;;;;5010304;28;20456;-68
2022/07/10 07:00:11;;;;;;;3.60;2.30;;;19.10;73.00;;;;;;5007934;28;20504;-68
2022/07/10 07:02:40;;;;;;;5.17;2.33;;;19.20;73.20;;;;;;5009551;28;20479;-68
2022/07/10 07:05:08;;;;;;;4.00;1.97;;;19.30;73.30;;;;;;5012941;28;20568;-67
2022/07/10 07:07:35;;;;;;;3.47;2.20;;;19.30;73.50;;;;;;5011887;28;20821;-67
2022/07/10 07:10:02;;;;;;;5.90;2.50;;;19.40;73.80;;;;;;5005444;28;20476;-67
2022/07/10 07:12:29;;;;;;;5.30;2.17;;;19.40;72.70;;;;;;5005558;28;20515;-68
2022/07/10 07:14:56;;;;;;;6.13;2.07;;;19.50;73.10;;;;;;5006656;28;20470;-68
2022/07/10 07:17:24;;;;;;;9.20;2.70;;;19.50;72.30;;;;;;5006188;28;20496;-68
2022/07/10 07:25:22;;;;;;;5.90;2.37;;;19.80;72.50;;;;;;5006696;28;20816;-68
2022/07/10 07:27:49;;;;;;;7.97;1.87;;;19.80;71.50;;;;;;5004967;28;20451;-68
2022/07/10 07:30:17;;;;;;;4.27;2.03;;;19.80;70.90;;;;;;5004591;28;20488;-68
2022/07/10 07:32:45;;;;;;;5.63;1.63;;;19.80;70.40;;;;;;5004153;28;20498;-68
2022/07/10 07:35:15;;;;;;;1.93;1.70;;;19.80;70.10;;;;;;5003278;28;20476;-68
2022/07/10 07:37:43;;;;;;;5.73;2.10;;;19.80;70.40;;;;;;5005665;28;20459;-68
2022/07/10 07:40:12;;;;;;;7.60;2.00;;;19.70;69.40;;;;;;5007135;28;20436;-68
2022/07/10 07:42:39;;;;;;;5.40;1.93;;;19.60;69.80;;;;;;5006086;28;20446;-68
2022/07/10 07:45:07;;;;;;;6.37;2.10;;;19.60;71.00;;;;;;5005409;28;20472;-69
2022/07/10 07:47:44;;;;;;;3.07;1.63;;;19.60;71.10;;;;;;5005272;28;20462;-69
2022/07/10 07:50:12;;;;;;;6.60;2.30;;;19.60;71.00;;;;;;5004746;28;20495;-69
2022/07/10 07:52:39;;;;;;;5.73;1.77;;;19.70;71.00;;;;;;5004895;28;20448;-69
2022/07/10 07:55:07;;;;;;;5.30;1.70;;;19.70;71.00;;;;;;5004088;28;20468;-68
2022/07/10 07:57:33;;;;;;;7.43;2.20;;;19.70;70.90;;;;;;5006155;28;20452;-68
2022/07/10 08:00:00;;;;;;;4.13;1.60;;;19.80;71.20;;;;;;5006749;28;20456;-70
2022/07/10 08:02:27;;;;;;;9.33;2.47;;;19.90;70.50;;;;;;5005545;28;20459;-69
2022/07/10 08:04:54;;;;;;;5.60;1.97;;;20.10;70.60;;;;;;5006755;28;20464;-69
2022/07/10 08:07:22;;;;;;;4.43;1.70;;;20.30;70.20;;;;;;5006950;28;20452;-68
2022/07/10 08:09:49;;;;;;;4.77;1.60;;;20.40;70.60;;;;;;5007543;28;20473;-68
2022/07/10 08:12:16;;;;;;;5.37;1.70;;;20.60;70.10;;;;;;5006795;28;20463;-68
2022/07/10 08:14:44;;;;;;;4.83;1.93;;;20.80;69.70;;;;;;5006130;28;20548;-68
2022/07/10 08:17:11;;;;;;;5.67;1.90;;;21.00;68.70;;;;;;5010484;28;20464;-68
2022/07/10 08:19:38;;;;;;;8.80;2.27;;;21.20;66.70;;;;;;5008626;28;20437;-68
2022/07/10 08:22:05;;;;;;;6.67;1.60;;;21.30;66.20;;;;;;5001519;28;20782;-68
2022/07/10 08:24:33;;;;;;;6.10;2.00;;;21.40;65.60;;;;;;5000469;28;20472;-67
2022/07/10 08:27:00;;;;;;;7.17;2.33;;;21.50;65.20;;;;;;5000874;28;20437;-67
2022/07/10 08:29:26;;;;;;;4.47;1.83;;;21.60;65.60;;;;;;5002207;28;20491;-67
2022/07/10 08:31:53;;;;;;;14.03;2.60;;;21.80;64.00;;;;;;5000487;28;20433;-68
2022/07/10 08:34:20;;;;;;;4.20;1.93;;;22.00;62.90;;;;;;4999240;28;20464;-67
2022/07/10 08:36:47;;;;;;;4.17;1.80;;;22.10;60.90;;;;;;5000059;28;20440;-67
2022/07/10 08:39:15;;;;;;;4.93;1.90;;;22.20;60.70;;;;;;5001554;28;20435;-67
2022/07/10 08:41:45;;;;;;;5.23;2.50;;;22.20;60.40;;;;;;5002284;28;20448;-67
2022/07/10 08:44:12;;;;;;;6.00;1.57;;;22.20;60.40;;;;;;5005052;28;20604;-67
2022/07/10 08:46:39;;;;;;;6.80;2.03;;;22.10;60.20;;;;;;4999767;28;20452;-67
2022/07/10 08:49:10;;;;;;;5.30;1.60;;;22.00;60.40;;;;;;5002467;28;20456;-67
2022/07/10 08:51:41;;;;;;;4.57;1.57;;;21.90;60.20;;;;;;5003642;28;20432;-67
2022/07/10 08:54:09;;;;;;;10.63;2.43;;;21.80;60.80;;;;;;5002687;28;20853;-67
2022/07/10 08:56:36;;;;;;;5.40;1.77;;;21.80;61.40;;;;;;5001922;28;20908;-67
2022/07/10 08:59:05;;;;;;;7.63;2.13;;;21.70;62.20;;;;;;4999762;28;20870;-66
2022/07/10 09:01:32;;;;;;;7.10;2.63;;;21.60;61.20;;;;;;4998450;28;20476;-66
2022/07/10 09:04:00;;;;;;;4.17;2.20;;;21.50;60.80;;;;;;4999894;28;20562;-67
2022/07/10 09:06:29;;;;;;;6.50;2.10;;;21.50;61.60;;;;;;5000020;28;20444;-66
2022/07/10 09:09:00;;;;;;;6.03;2.47;;;21.30;62.50;;;;;;5000440;28;20445;-66
2022/07/10 09:11:29;;;;;;;8.23;2.50;;;21.20;64.20;;;;;;5002104;28;20476;-67
2022/07/10 09:13:58;;;;;;;5.67;2.10;;;21.00;64.30;;;;;;5000862;28;20472;-67
2022/07/10 09:16:28;;;;;;;4.30;1.80;;;20.90;65.30;;;;;;5003552;28;20437;-67
2022/07/10 09:18:56;;;;;;;3.67;1.67;;;20.90;66.10;;;;;;5001686;28;20431;-67
2022/07/10 09:21:24;;;;;;;6.47;1.90;;;20.80;66.90;;;;;;5001451;28;20437;-67
2022/07/10 09:23:51;;;;;;;7.33;1.57;;;20.80;66.70;;;;;;5003823;28;20460;-68
2022/07/10 09:26:18;;;;;;;6.63;1.70;;;20.70;66.00;;;;;;5004351;28;20429;-68
2022/07/10 09:28:45;;;;;;;7.40;1.73;;;20.70;67.90;;;;;;5004410;28;20460;-68
2022/07/10 09:31:12;;;;;;;3.47;1.80;;;20.70;69.10;;;;;;5006049;28;20530;-68
2022/07/10 09:33:41;;;;;;;5.20;2.10;;;20.70;70.20;;;;;;5006274;28;20652;-68
2022/07/10 09:36:10;;;;;;;5.37;2.53;;;20.70;70.80;;;;;;5005586;28;20535;-67
2022/07/10 09:38:54;;;;;;;7.60;2.47;;;20.70;72.10;;;;;;5003388;28;20460;-67
2022/07/10 09:41:25;;;;;;;12.00;3.30;;;20.80;74.00;;;;;;5002698;28;20448;-66
2022/07/10 09:43:53;;;;;;;5.70;2.70;;;20.90;74.40;;;;;;5002716;28;20605;-66
2022/07/10 09:46:22;;;;;;;6.80;2.80;;;21.10;75.30;;;;;;5003634;28;20963;-67
2022/07/10 09:49:02;;;;;;;7.47;2.80;;;21.30;74.60;;;;;;5003301;28;20449;-67
2022/07/10 09:51:32;;;;;;;8.10;2.97;;;21.70;73.50;;;;;;5005121;28;20464;-72
2022/07/10 09:54:01;;;;;;;4.43;2.53;;;22.00;71.30;;;;;;5011493;28;20500;-68
2022/07/10 09:56:33;;;;;;;6.40;1.97;;;22.30;69.10;;;;;;5012005;28;20467;-67
2022/07/10 09:59:01;;;;;;;2.73;1.50;;;22.80;63.80;;;;;;5009121;28;20425;-67
2022/07/10 10:01:30;;;;;;;6.10;2.60;;;23.40;60.50;;;;;;5009895;28;20452;-67
2022/07/10 10:04:01;;;;;;;2.90;1.77;;;23.70;60.10;;;;;;5010420;28;20471;-67
2022/07/10 10:06:30;;;;;;;4.70;2.00;;;23.90;59.00;;;;;;5008983;28;20445;-67
2022/07/10 10:09:05;;;;;;;3.53;1.60;;;24.10;58.10;;;;;;4993001;28;20450;-67
2022/07/10 10:11:35;;;;;;;2.50;1.23;;;24.40;57.30;;;;;;5009462;28;20479;-66
2022/07/10 10:14:03;;;;;;;1.63;1.23;;;24.60;56.10;;;;;;5009504;28;20563;-66
2022/07/10 10:16:30;;;;;;;2.37;1.87;;;24.70;55.90;;;;;;5009060;28;20479;-67
2022/07/10 10:21:45;;;;;;;1.63;1.27;;;24.60;55.90;;;;;;5009817;28;20412;-68
2022/07/10 10:24:13;;;;;;;2.10;1.40;;;24.60;55.50;;;;;;5010242;28;20503;-67
2022/07/10 10:26:41;;;;;;;3.30;1.60;;;24.70;55.60;;;;;;5008528;28;20448;-67
2022/07/10 10:29:10;;;;;;;2.20;1.10;;;25.10;55.00;;;;;;5009712;28;20444;-67
2022/07/10 10:31:37;;;;;;;2.47;1.23;;;25.60;54.90;;;;;;5009874;28;20484;-66
2022/07/10 10:34:06;;;;;;;3.17;1.60;;;25.80;52.30;;;;;;5009948;28;20543;-67
2022/07/10 10:36:45;;;;;;;2.63;1.20;;;25.80;52.70;;;;;;5005858;28;20452;-66
2022/07/10 10:39:13;;;;;;;1.90;1.27;;;25.70;52.90;;;;;;5000911;28;20440;-66
2022/07/10 10:41:43;;;;;;;3.23;1.57;;;25.40;53.10;;;;;;5008160;28;20436;-66
2022/07/10 10:44:28;;;;;;;4.63;1.20;;;25.10;53.20;;;;;;5009537;28;20496;-66
2022/07/10 10:47:00;;;;;;;3.00;1.00;;;24.90;54.40;;;;;;5010065;28;20919;-67
2022/07/10 10:49:50;;;;;;;2.30;1.40;;;24.90;54.10;;;;;;5010389;28;20476;-67
2022/07/10 10:52:18;;;;;;;1.90;1.30;;;25.10;53.30;;;;;;5010881;28;20444;-67
2022/07/10 10:55:03;;;;;;;2.90;1.40;;;25.30;53.50;;;;;;5010001;28;20491;-67
2022/07/10 10:57:46;;;;;;;3.00;1.53;;;25.40;52.70;;;;;;5010205;28;20548;-67
2022/07/10 11:00:16;;;;;;;2.60;1.30;;;25.60;53.00;;;;;;5010005;28;20796;-67
2022/07/10 11:02:43;;;;;;;2.67;1.27;;;25.70;52.10;;;;;;5009595;28;20503;-67
2022/07/10 11:05:43;;;;;;;1.87;1.60;;;26.00;52.00;;;;;;5008874;28;20476;-67
2022/07/10 11:08:10;;;;;;;4.40;1.40;;;26.10;51.30;;;;;;5008429;28;20453;-68
2022/07/10 11:10:38;;;;;;;2.30;1.40;;;26.30;51.60;;;;;;5008352;28;20480;-67
2022/07/10 11:13:07;;;;;;;2.00;1.00;;;26.50;49.90;;;;;;5008815;28;20448;-67
2022/07/10 11:15:37;;;;;;;3.80;1.57;;;26.80;49.80;;;;;;5009379;28;20535;-68
2022/07/10 11:18:05;;;;;;;5.03;1.33;;;26.90;49.20;;;;;;5009486;28;20500;-68
2022/07/10 11:20:36;;;;;;;3.67;1.40;;;26.80;49.10;;;;;;5009208;28;20463;-68
2022/07/10 11:23:35;;;;;;;1.53;1.33;;;26.50;49.20;;;;;;5009711;28;20462;-67
2022/07/10 11:26:11;;;;;;;4.93;2.00;;;26.20;49.50;;;;;;5008970;28;20432;-67
2022/07/10 11:28:50;;;;;;;2.97;1.60;;;25.70;50.90;;;;;;5009426;28;20440;-67
2022/07/10 11:31:17;;;;;;;2.70;1.60;;;25.20;51.60;;;;;;5009955;28;20532;-67
2022/07/10 11:33:48;;;;;;;2.97;1.57;;;24.60;52.60;;;;;;5010081;28;20475;-67
2022/07/10 11:36:16;;;;;;;2.40;1.40;;;24.10;54.00;;;;;;5009952;28;20429;-67
2022/07/10 11:38:46;;;;;;;2.40;1.60;;;23.80;55.10;;;;;;5010429;28;20452;-68
2022/07/10 11:41:17;;;;;;;2.40;1.30;;;23.70;55.50;;;;;;5009692;28;20511;-68
2022/07/10 11:43:51;;;;;;;1.70;1.10;;;23.80;55.60;;;;;;5009536;28;20906;-69
2022/07/10 11:46:20;;;;;;;2.67;1.47;;;24.30;55.00;;;;;;5008708;28;20451;-68
2022/07/10 11:48:47;;;;;;;1.90;1.13;;;25.70;52.80;;;;;;5009632;28;21013;-68
2022/07/10 11:51:28;;;;;;;4.47;1.00;;;26.90;48.60;;;;;;5010059;28;20858;-68
2022/07/10 11:53:57;;;;;;;2.73;1.50;;;27.10;47.50;;;;;;5009226;28;20471;-68
2022/07/10 11:56:24;;;;;;;4.13;1.50;;;27.00;46.50;;;;;;5009435;28;20448;-68
2022/07/10 11:58:59;;;;;;;1.63;1.10;;;26.80;47.60;;;;;;5009497;28;20429;-69
2022/07/10 12:01:26;;;;;;;2.20;1.37;;;26.60;47.60;;;;;;5009514;28;20424;-69
2022/07/10 12:04:02;;;;;;;1.67;1.17;;;26.70;47.90;;;;;;5008541;28;20472;-68
2022/07/10 12:06:30;;;;;;;1.27;1.17;;;26.60;47.70;;;;;;5008508;28;20444;-69
2022/07/10 12:09:03;;;;;;;3.37;1.30;;;26.60;47.90;;;;;;5008769;28;20452;-69
2022/07/10 12:11:30;;;;;;;4.60;1.80;;;26.70;47.70;;;;;;5008001;28;20472;-70
2022/07/10 12:14:14;;;;;;;2.43;1.27;;;26.70;47.80;;;;;;5009069;28;20468;-69
2022/07/10 12:16:43;;;;;;;2.57;1.20;;;26.40;48.20;;;;;;5009680;28;20448;-70
2022/07/10 12:19:12;;;;;;;2.90;1.40;;;26.00;48.80;;;;;;5009656;28;20463;-70
2022/07/10 12:21:40;;;;;;;1.90;1.47;;;25.60;49.70;;;;;;5009096;28;20900;-70
2022/07/10 12:24:09;;;;;;;2.33;1.80;;;25.40;50.40;;;;;;4992652;28;20473;-69
2022/07/10 12:26:37;;;;;;;3.13;1.67;;;25.00;51.30;;;;;;5009200;28;20544;-69
2022/07/10 12:29:05;;;;;;;4.70;1.40;;;24.70;51.80;;;;;;5009442;28;20528;-69
2022/07/10 12:31:34;;;;;;;1.80;1.50;;;24.40;52.50;;;;;;5009357;28;20495;-69
2022/07/10 12:34:04;;;;;;;4.10;1.40;;;24.30;53.10;;;;;;5009212;28;20471;-69
2022/07/10 12:36:48;;;;;;;3.77;1.60;;;24.20;53.30;;;;;;5009479;28;20875;-70
2022/07/10 12:39:17;;;;;;;5.30;2.17;;;24.20;53.80;;;;;;5009071;28;20428;-69
2022/07/10 12:41:58;;;;;;;4.97;1.90;;;24.20;53.30;;;;;;4990842;28;20815;-69
2022/07/10 12:44:36;;;;;;;2.83;1.43;;;24.20;53.50;;;;;;5008392;28;20502;-69
2022/07/10 12:47:08;;;;;;;2.87;1.50;;;24.10;53.80;;;;;;5008186;28;20444;-69
2022/07/10 12:49:52;;;;;;;4.67;2.00;;;24.00;53.90;;;;;;5008125;28;20846;-69
2022/07/10 12:52:26;;;;;;;3.53;2.10;;;23.90;54.30;;;;;;5007927;28;20475;-69
2022/07/10 12:55:22;;;;;;;5.90;2.00;;;23.90;54.20;;;;;;5004856;28;20571;-69
2022/07/10 12:57:51;;;;;;;3.27;1.67;;;23.80;54.40;;;;;;5006553;28;20432;-70
2022/07/10 13:00:19;;;;;;;3.47;1.80;;;23.80;54.40;;;;;;5007599;28;20425;-69
2022/07/10 13:02:50;;;;;;;4.43;1.77;;;23.90;54.50;;;;;;5007038;28;20433;-69
2022/07/10 13:05:30;;;;;;;3.90;1.80;;;24.20;54.30;;;;;;5006086;28;20468;-69